createdAt,value
2019-01-09T00:05:28.371Z,9.37
2019-01-09T00:11:32.734Z,9.27
2019-01-09T00:17:38.653Z,6.77
2019-01-09T00:23:44.605Z,7.47
2019-01-09T00:29:50.355Z,3.17
2019-01-09T00:35:56.256Z,5.43
2019-01-09T00:42:02.189Z,8.97
2019-01-09T00:48:07.900Z,8.60
2019-01-09T00:54:13.778Z,14.13
2019-01-09T01:00:20.939Z,19.07
2019-01-09T01:07:27.800Z,19.27
2019-01-09T01:14:14.493Z,29.13
2019-01-09T01:20:53.901Z,25.50
2019-01-09T01:27:19.460Z,14.37
2019-01-09T01:33:56.043Z,23.33
2019-01-09T01:40:29.610Z,16.23
2019-01-09T01:47:29.538Z,20.40
2019-01-09T01:54:31.221Z,13.90
2019-01-09T02:01:33.599Z,22.37
2019-01-09T02:08:42.630Z,22.47
2019-01-09T02:15:45.900Z,19.60
2019-01-09T02:22:58.813Z,18.23
2019-01-09T02:30:06.384Z,17.73
2019-01-09T02:36:13.551Z,15.63
2019-01-09T02:42:19.984Z,14.27
2019-01-09T02:48:26.315Z,13.10
2019-01-09T02:54:32.069Z,14.23
2019-01-09T03:00:37.779Z,21.63
2019-01-09T03:06:43.588Z,16.97
2019-01-09T03:12:49.519Z,11.63
2019-01-09T03:18:55.287Z,14.17
2019-01-09T03:25:01.303Z,12.73
2019-01-09T03:31:07.404Z,14.60
2019-01-09T03:37:13.166Z,16.83
2019-01-09T03:43:18.899Z,14.83
2019-01-09T03:49:24.826Z,17.93
2019-01-09T03:55:30.647Z,13.70
2019-01-09T04:01:36.539Z,17.63
2019-01-09T04:07:42.317Z,21.37
2019-01-09T04:13:48.227Z,19.13
2019-01-09T04:19:54.030Z,14.80
2019-01-09T04:25:59.979Z,10.47
2019-01-09T04:32:05.698Z,15.97
2019-01-09T04:38:11.657Z,17.23
2019-01-09T04:44:17.453Z,9.10
2019-01-09T04:50:23.305Z,16.03
2019-01-09T04:56:29.165Z,16.07
2019-01-09T05:02:34.954Z,13.10
2019-01-09T05:08:40.815Z,14.20
2019-01-09T05:14:46.969Z,14.60
2019-01-09T05:20:53.069Z,17.20
2019-01-09T05:26:58.791Z,17.90
2019-01-09T05:33:18.691Z,19.13
2019-01-09T05:39:24.616Z,16.53
2019-01-09T05:45:30.369Z,12.63
2019-01-09T05:51:36.303Z,13.73
2019-01-09T05:57:42.493Z,18.50
2019-01-09T06:03:48.647Z,16.37
2019-01-09T06:09:54.680Z,23.33
2019-01-09T06:16:00.579Z,18.50
2019-01-09T06:22:06.496Z,15.80
2019-01-09T06:28:12.392Z,17.33
2019-01-09T06:34:18.297Z,18.77
2019-01-09T06:40:24.250Z,17.20
2019-01-09T06:46:30.008Z,9.83
2019-01-09T06:52:36.025Z,8.27
2019-01-09T06:58:42.018Z,9.13
2019-01-09T07:04:47.761Z,6.00
2019-01-09T07:11:02.587Z,14.33
2019-01-09T07:17:08.757Z,15.77
2019-01-09T07:23:14.860Z,16.63
2019-01-09T07:29:20.711Z,19.63
2019-01-09T07:35:26.460Z,17.80
2019-01-09T07:41:32.643Z,14.90
2019-01-09T07:47:38.500Z,20.67
2019-01-09T07:53:44.580Z,20.87
2019-01-09T07:59:50.596Z,11.93
2019-01-09T08:05:56.535Z,15.80
2019-01-09T08:12:02.335Z,18.17
2019-01-09T08:18:08.288Z,19.23
2019-01-09T08:24:18.959Z,16.40
2019-01-09T08:30:24.666Z,15.23
2019-01-09T08:36:30.405Z,23.30
2019-01-09T08:42:44.219Z,13.87
2019-01-09T08:48:50.163Z,17.67
2019-01-09T08:54:56.403Z,13.73
2019-01-09T09:01:02.542Z,13.47
2019-01-09T09:07:08.635Z,14.40
2019-01-09T09:13:34.012Z,15.47
2019-01-09T09:19:39.829Z,8.50
2019-01-09T09:25:45.526Z,14.97
2019-01-09T09:31:51.482Z,15.80
2019-01-09T09:37:58.639Z,11.77
2019-01-09T09:44:04.445Z,12.27
2019-01-09T09:50:12.705Z,15.03
2019-01-09T09:56:18.828Z,11.77
2019-01-09T10:02:24.941Z,15.27
2019-01-09T10:08:30.922Z,12.87
2019-01-09T10:14:36.663Z,15.30
2019-01-09T10:20:46.265Z,11.83
2019-01-09T10:26:54.106Z,11.63
2019-01-09T10:32:59.735Z,15.93
2019-01-09T10:39:09.744Z,15.23
2019-01-09T10:45:19.233Z,15.17
2019-01-09T10:51:25.459Z,11.60
2019-01-09T10:57:31.206Z,11.73
2019-01-09T11:03:36.908Z,8.63
2019-01-09T11:09:42.650Z,9.60
2019-01-09T11:15:48.366Z,7.00
2019-01-09T11:21:54.134Z,13.00
2019-01-09T11:27:59.894Z,12.20
2019-01-09T11:34:05.684Z,7.80
2019-01-09T11:40:12.662Z,7.03
2019-01-09T11:46:18.386Z,5.60
2019-01-09T11:52:24.162Z,8.30
2019-01-09T11:58:29.922Z,14.10
2019-01-09T12:04:35.650Z,8.13
2019-01-09T12:10:41.351Z,9.33
2019-01-09T12:16:47.101Z,13.30
2019-01-09T12:22:52.933Z,7.57
2019-01-09T12:28:59.092Z,8.53
2019-01-09T12:35:04.988Z,5.10
2019-01-09T12:41:10.731Z,7.23
2019-01-09T12:47:16.514Z,10.07
2019-01-09T12:53:22.286Z,5.50
2019-01-09T12:59:28.679Z,4.23
2019-01-09T13:05:34.437Z,5.90
2019-01-09T13:11:40.189Z,5.93
2019-01-09T13:17:45.972Z,8.73
2019-01-09T13:23:51.781Z,8.17
2019-01-09T13:29:57.481Z,4.83
2019-01-09T13:36:04.016Z,7.70
2019-01-09T13:42:09.794Z,6.40
2019-01-09T13:48:15.532Z,9.00
2019-01-09T13:54:21.307Z,2.47
2019-01-09T14:00:27.115Z,7.50
2019-01-09T14:06:32.983Z,7.00
2019-01-09T14:12:38.771Z,2.70
2019-01-09T14:18:44.467Z,1.97
2019-01-09T14:24:50.215Z,9.57
2019-01-09T14:30:56.120Z,6.70
2019-01-09T14:37:01.977Z,7.67
2019-01-09T14:43:07.828Z,5.93
2019-01-09T14:49:13.559Z,8.23
2019-01-09T14:55:19.822Z,6.83
2019-01-09T15:01:25.578Z,7.10
2019-01-09T15:07:31.286Z,7.47
2019-01-09T15:13:37.031Z,8.53
2019-01-09T15:19:42.975Z,5.20
2019-01-09T15:25:49.140Z,9.03
2019-01-09T15:31:55.365Z,4.93
2019-01-09T15:38:01.293Z,6.30
2019-01-09T15:44:07.492Z,6.37
2019-01-09T15:50:16.511Z,10.20
2019-01-09T15:56:22.326Z,10.67
2019-01-09T16:02:28.126Z,8.43
2019-01-09T16:08:33.903Z,12.20
2019-01-09T16:14:39.852Z,6.67
2019-01-09T16:20:45.569Z,8.60
2019-01-09T16:26:51.459Z,9.60
2019-01-09T16:32:57.287Z,10.30
2019-01-09T16:39:05.392Z,7.07
2019-01-09T16:45:12.141Z,10.60
2019-01-09T16:51:17.890Z,7.23
2019-01-09T16:57:23.778Z,15.47
2019-01-09T17:03:29.684Z,14.93
2019-01-09T17:09:37.905Z,16.37
2019-01-09T17:15:43.912Z,9.87
2019-01-09T17:21:49.630Z,10.73
2019-01-09T17:27:55.430Z,7.77
2019-01-09T17:34:01.609Z,11.47
2019-01-09T17:40:08.689Z,5.50
2019-01-09T17:46:14.902Z,11.00
2019-01-09T17:52:20.650Z,7.13
2019-01-09T17:58:26.483Z,14.27
2019-01-09T18:04:32.226Z,10.00
2019-01-09T18:10:38.066Z,10.83
2019-01-09T18:16:44.112Z,7.03
2019-01-09T18:22:49.990Z,13.47
2019-01-09T18:28:55.711Z,11.53
2019-01-09T18:35:28.862Z,12.27
2019-01-09T18:42:12.299Z,12.93
2019-01-09T18:49:21.541Z,8.33
2019-01-09T18:55:27.268Z,12.67
2019-01-09T19:01:33.249Z,11.30
2019-01-09T19:07:39.056Z,7.93
2019-01-09T19:13:45.128Z,11.87
2019-01-09T19:19:50.995Z,12.30
2019-01-09T19:25:56.803Z,9.33
2019-01-09T19:32:02.652Z,10.57
2019-01-09T19:38:08.562Z,16.77
2019-01-09T19:44:14.497Z,10.30
2019-01-09T19:50:23.510Z,12.33
2019-01-09T19:56:29.586Z,10.20
2019-01-09T20:02:35.462Z,11.67
2019-01-09T20:08:41.418Z,8.63
2019-01-09T20:14:48.189Z,6.47
2019-01-09T20:20:54.165Z,9.23
2019-01-09T20:26:59.989Z,11.47
2019-01-09T20:33:05.939Z,13.03
2019-01-09T20:39:11.749Z,10.40
2019-01-09T20:45:18.480Z,15.73
2019-01-09T20:51:24.664Z,7.17
2019-01-09T20:57:30.569Z,11.27
2019-01-09T21:03:36.526Z,8.53
2019-01-09T21:09:42.316Z,9.10
2019-01-09T21:15:48.586Z,11.93
2019-01-09T21:21:54.533Z,8.63
2019-01-09T21:28:01.856Z,12.17
2019-01-09T21:34:07.793Z,12.10
2019-01-09T21:40:23.964Z,16.83
2019-01-09T21:46:30.319Z,15.00
2019-01-09T21:52:36.198Z,6.60
2019-01-09T21:58:42.365Z,7.27
2019-01-09T22:04:48.433Z,14.30
2019-01-09T22:10:54.392Z,10.53
2019-01-09T22:17:00.381Z,9.40
2019-01-09T22:23:06.440Z,9.73
2019-01-09T22:29:12.281Z,8.73
2019-01-09T22:35:18.139Z,13.17
2019-01-09T22:41:24.300Z,10.03
2019-01-09T22:47:30.296Z,9.43
2019-01-09T22:53:36.364Z,12.63
2019-01-09T22:59:42.088Z,14.67
2019-01-09T23:05:48.265Z,8.50
2019-01-09T23:11:54.137Z,9.73
2019-01-09T23:17:59.925Z,10.20
2019-01-09T23:24:05.856Z,14.73
2019-01-09T23:30:12.594Z,8.20
2019-01-09T23:36:18.548Z,9.90
2019-01-09T23:42:30.197Z,11.20
2019-01-09T23:48:32.375Z,13.03
2019-01-09T23:54:38.130Z,13.40
